Impacts METAR Board
IDs:

KCLT - Charlotte/Douglas In, NC, US

Updated at: 0100 UTC 16 Oct 2018
Potential Impact None Slight Moderate High
Time 15/13Z 15/14Z 15/15Z 15/16Z 15/17Z 15/18Z 15/19Z 15/20Z 15/21Z 15/22Z 15/23Z 16/00Z 16/01Z
Temp63 65 71 74 75 78 81 81 80 78 75 72 71
Dewpt59 61 65 67 67 67 66 66 64 65 65 66 66
Altim30.21 30.21 30.21 30.21 30.19 30.16 30.14 30.13 30.12 30.12 30.12 30.12 30.12
VIS7 6 9 10 10 10 10 10 10 10 10 10 10
CIG21 20 180 16 18 22 250 -- -- -- -- -- --
CoverBKNBKNBKNBKNBKNBKNBKNSCTSCTFEWCLRFEWFEW
FltCatMVFRMVFRVFRMVFRMVFRMVFRVFRVFRVFRVFRVFRVFRVFR
WX--BR----------------------
WDir017000220230240210220210190190200
WSpd0 3 0 6 8 9 10 10 8 7 7 6 3
WGst-- -- -- -- -- 14 -- -- -- -- -- -- --
Raw hourly METARs
KCLT 151252Z 00000KT 7SM SCT007 BKN021 BKN140 17/15 A3021 RMK AO2 SLP225 T01720150
KCLT 151352Z 17003KT 6SM BR BKN020 BKN140 18/16 A3021 RMK AO2 SLP227 T01830161
KCLT 151452Z 00000KT 9SM SCT017 SCT034 BKN180 22/18 A3021 RMK AO2 SLP226 T02170183 51005
KCLT 151552Z VRB06KT 10SM BKN016 BKN028 BKN180 23/19 A3021 RMK AO2 SLP224 T02330194
KCLT 151652Z 22008KT 10SM BKN018 BKN033 BKN200 24/19 A3019 RMK AO2 SLP218 T02390194
KCLT 151752Z 23009G14KT 10SM BKN022 BKN038 BKN200 26/19 A3016 RMK AO2 SLP206 T02560194 10261 20156 58018
KCLT 151852Z 24010KT 10SM SCT032 BKN250 27/19 A3014 RMK AO2 SLP199 T02720189
KCLT 151952Z 21010KT 10SM SCT035 27/19 A3013 RMK AO2 SLP195 T02720189
KCLT 152052Z 22008KT 10SM SCT034 27/18 A3012 RMK AO2 SLP194 T02670178 56012
KCLT 152152Z 21007KT 10SM FEW036 FEW150 26/18 A3012 RMK AO2 SLP195 T02560183
KCLT 152252Z 19007KT 10SM CLR 24/18 A3012 RMK AO2 SLP193 T02390183
KCLT 152352Z 19006KT 10SM FEW150 22/19 A3012 RMK AO2 SLP194 T02220189 10272 20222 55000
KCLT 160052Z 20003KT 10SM FEW150 22/19 A3012 RMK AO2 SLP195 T02170189



Page loaded:  01:07 UTC  |   06:07 PM Pacific  |   07:07 PM Mountain  |   08:07 PM Central  |   09:07 PM Eastern

 

ADVISORIES

FORECASTS

FORECASTS

OBSERVATIONS

USER TOOLS

ABOUT US